createdAt,value
2023-02-14T00:00:01.906Z,56.88
2023-02-14T00:02:28.835Z,49.25
2023-02-14T00:04:55.799Z,50.20
2023-02-14T00:07:22.698Z,56.85
2023-02-14T00:09:49.654Z,54.75
2023-02-14T00:12:16.644Z,50.22
2023-02-14T00:15:02.001Z,53.33
2023-02-14T00:17:28.809Z,53.38
2023-02-14T00:19:55.707Z,46.80
2023-02-14T00:22:22.574Z,47.63
2023-02-14T00:24:49.432Z,43.05
2023-02-14T00:27:18.910Z,45.05
2023-02-14T00:29:45.947Z,36.47
2023-02-14T00:32:15.022Z,35.10
2023-02-14T00:34:42.048Z,42.25
2023-02-14T00:37:08.818Z,43.40
2023-02-14T00:39:35.660Z,40.22
2023-02-14T00:42:02.492Z,39.53
2023-02-14T00:44:31.591Z,48.10
2023-02-14T00:46:58.453Z,48.28
2023-02-14T00:49:25.315Z,36.50
2023-02-14T00:51:52.169Z,40.97
2023-02-14T00:54:19.029Z,44.50
2023-02-14T00:56:45.890Z,46.95
2023-02-14T00:59:15.493Z,39.83
2023-02-14T01:01:42.347Z,32.13
2023-02-14T01:04:09.293Z,30.00
2023-02-14T01:06:36.237Z,27.08
2023-02-14T01:09:05.793Z,26.73
2023-02-14T01:11:32.721Z,22.98
2023-02-14T01:13:59.939Z,29.42
2023-02-14T01:16:27.783Z,22.35
2023-02-14T01:18:55.072Z,26.98
2023-02-14T01:21:23.661Z,27.15
2023-02-14T01:23:53.012Z,28.02
2023-02-14T01:26:20.328Z,25.25
2023-02-14T01:28:47.230Z,33.88
2023-02-14T01:31:15.497Z,36.38
2023-02-14T01:33:43.240Z,30.65
2023-02-14T01:36:26.383Z,32.10
2023-02-14T01:38:54.576Z,30.73
2023-02-14T01:41:22.243Z,34.03
2023-02-14T01:43:59.274Z,33.55
2023-02-14T01:46:27.337Z,32.13
2023-02-14T01:49:05.663Z,29.10
2023-02-14T01:51:32.926Z,30.75
2023-02-14T01:54:00.067Z,26.08
2023-02-14T01:56:35.657Z,27.60
2023-02-14T01:59:03.388Z,28.48
2023-02-14T02:01:31.088Z,32.00
2023-02-14T02:04:01.794Z,28.65
2023-02-14T02:06:34.682Z,36.35
2023-02-14T02:09:20.481Z,38.70
2023-02-14T02:11:48.076Z,43.85
2023-02-14T02:14:16.721Z,42.33
2023-02-14T02:16:59.014Z,48.90
2023-02-14T02:19:44.682Z,54.40
2023-02-14T02:22:14.548Z,53.63
2023-02-14T02:24:41.280Z,58.05
2023-02-14T02:27:10.912Z,62.35
2023-02-14T02:29:56.593Z,51.17
2023-02-14T02:32:42.372Z,54.00
2023-02-14T02:35:24.667Z,53.13
2023-02-14T02:38:00.792Z,51.55
2023-02-14T02:40:46.530Z,49.00
2023-02-14T02:43:16.867Z,48.92
2023-02-14T02:46:06.066Z,48.17
2023-02-14T02:48:42.042Z,43.75
2023-02-14T02:51:31.493Z,42.63
2023-02-14T02:54:09.992Z,34.75
2023-02-14T02:56:47.501Z,39.60
2023-02-14T02:59:25.547Z,32.17
2023-02-14T03:02:01.549Z,32.00
2023-02-14T03:04:47.127Z,33.08
2023-02-14T03:07:32.466Z,31.02
2023-02-14T03:10:00.514Z,32.50
2023-02-14T03:12:27.249Z,31.05
2023-02-14T03:15:11.688Z,40.10
2023-02-14T03:20:30.435Z,33.00
2023-02-14T03:22:59.564Z,28.90
2023-02-14T03:25:32.763Z,32.40
2023-02-14T03:28:04.614Z,32.90
2023-02-14T03:30:43.198Z,33.47
2023-02-14T03:33:12.911Z,33.53
2023-02-14T03:35:54.858Z,37.10
2023-02-14T03:38:38.920Z,36.35
2023-02-14T03:41:10.574Z,35.70
2023-02-14T03:43:41.822Z,31.13
2023-02-14T03:46:10.941Z,35.97
2023-02-14T03:48:39.222Z,39.85
2023-02-14T03:51:07.919Z,37.30
2023-02-14T03:53:36.732Z,40.65
2023-02-14T03:56:07.977Z,37.47
2023-02-14T03:58:37.524Z,37.10
2023-02-14T04:01:13.648Z,36.05
2023-02-14T04:03:42.421Z,39.00
2023-02-14T04:06:09.517Z,35.13
2023-02-14T04:08:36.426Z,32.03
2023-02-14T04:11:03.927Z,38.83
2023-02-14T04:13:31.123Z,36.45
2023-02-14T04:15:58.126Z,30.77
2023-02-14T04:18:43.573Z,35.50
2023-02-14T04:21:10.431Z,36.85
2023-02-14T04:23:37.309Z,35.05
2023-02-14T04:26:04.943Z,33.83
2023-02-14T04:28:32.221Z,37.28
2023-02-14T04:31:06.659Z,33.67
2023-02-14T04:33:33.930Z,33.80
2023-02-14T04:36:00.987Z,32.95
2023-02-14T04:38:27.914Z,35.40
2023-02-14T04:40:54.820Z,35.03
2023-02-14T04:43:21.638Z,36.42
2023-02-14T04:45:48.603Z,31.70
2023-02-14T04:48:15.441Z,32.97
2023-02-14T04:50:42.212Z,38.63
2023-02-14T04:53:09.012Z,30.88
2023-02-14T04:55:35.910Z,30.38
2023-02-14T04:58:02.695Z,40.42
2023-02-14T05:00:29.498Z,38.47
2023-02-14T05:02:56.461Z,32.67
2023-02-14T05:05:23.295Z,35.28
2023-02-14T05:07:50.099Z,35.20
2023-02-14T05:10:17.043Z,34.33
2023-02-14T05:12:43.867Z,32.75
2023-02-14T05:15:10.698Z,30.58
2023-02-14T05:17:37.615Z,33.35
2023-02-14T05:20:05.954Z,40.17
2023-02-14T05:22:32.825Z,32.92
2023-02-14T05:24:59.641Z,35.05
2023-02-14T05:27:26.485Z,39.63
2023-02-14T05:29:53.353Z,32.15
2023-02-14T05:32:20.235Z,37.13
2023-02-14T05:34:47.089Z,36.45
2023-02-14T05:37:13.890Z,37.42
2023-02-14T05:39:40.928Z,40.35
2023-02-14T05:44:34.445Z,36.58
2023-02-14T05:47:01.334Z,38.13
2023-02-14T05:49:28.247Z,32.97
2023-02-14T05:51:55.049Z,37.95
2023-02-14T05:54:21.830Z,37.95
2023-02-14T05:56:48.680Z,43.15
2023-02-14T05:59:15.588Z,38.97
2023-02-14T06:01:42.413Z,35.28
2023-02-14T06:04:09.303Z,38.08
2023-02-14T06:06:36.830Z,36.60
2023-02-14T06:09:03.932Z,34.00
2023-02-14T06:11:30.792Z,37.55
2023-02-14T06:13:59.962Z,36.50
2023-02-14T06:16:26.880Z,35.85
2023-02-14T06:18:53.728Z,32.20
2023-02-14T06:21:20.566Z,32.95
2023-02-14T06:23:47.460Z,37.17
2023-02-14T06:26:14.268Z,35.85
2023-02-14T06:28:41.266Z,37.17
2023-02-14T06:31:08.238Z,36.33
2023-02-14T06:33:35.101Z,35.60
2023-02-14T06:36:01.898Z,39.75
2023-02-14T06:38:28.734Z,36.15
2023-02-14T06:40:55.545Z,38.20
2023-02-14T06:43:22.374Z,35.63
2023-02-14T06:45:49.540Z,36.50
2023-02-14T06:48:16.384Z,36.22
2023-02-14T06:50:43.234Z,39.10
2023-02-14T06:53:10.094Z,35.22
2023-02-14T06:55:36.924Z,32.63
2023-02-14T06:58:03.889Z,34.38
2023-02-14T07:00:30.741Z,34.28
2023-02-14T07:02:57.946Z,31.73
2023-02-14T07:05:24.870Z,33.95
2023-02-14T07:07:51.700Z,32.75
2023-02-14T07:10:18.642Z,35.03
2023-02-14T07:12:45.748Z,38.53
2023-02-14T07:15:13.988Z,45.15
2023-02-14T07:17:40.893Z,34.63
2023-02-14T07:20:08.401Z,31.90
2023-02-14T07:22:35.916Z,31.40
2023-02-14T07:25:02.756Z,31.30
2023-02-14T07:27:29.930Z,32.05
2023-02-14T07:29:56.792Z,35.90
2023-02-14T07:32:23.818Z,35.83
2023-02-14T07:34:50.920Z,34.47
2023-02-14T07:37:17.987Z,36.38
2023-02-14T07:39:45.123Z,42.03
2023-02-14T07:42:12.480Z,37.05
2023-02-14T07:44:45.006Z,38.53
2023-02-14T07:47:12.433Z,33.92
2023-02-14T07:49:39.375Z,36.05
2023-02-14T07:52:06.269Z,31.63
2023-02-14T07:54:33.206Z,38.28
2023-02-14T07:57:00.473Z,36.20
2023-02-14T07:59:27.612Z,35.78
2023-02-14T08:01:54.485Z,36.45
2023-02-14T08:04:21.628Z,39.53
2023-02-14T08:06:48.395Z,35.95
2023-02-14T08:09:24.721Z,38.97
2023-02-14T08:12:13.842Z,37.13
2023-02-14T08:14:41.052Z,40.80
2023-02-14T08:17:12.139Z,36.58
2023-02-14T08:19:39.263Z,39.20
2023-02-14T08:22:07.019Z,35.30
2023-02-14T08:24:33.912Z,34.92
2023-02-14T08:27:00.720Z,34.70
2023-02-14T08:29:27.654Z,34.53
2023-02-14T08:31:54.601Z,41.45
2023-02-14T08:34:21.732Z,37.15
2023-02-14T08:36:48.712Z,34.13
2023-02-14T08:39:15.637Z,32.53
2023-02-14T08:41:42.607Z,35.25
2023-02-14T08:44:09.414Z,35.95
2023-02-14T08:46:36.318Z,33.65
2023-02-14T08:49:03.134Z,38.75
2023-02-14T08:51:30.111Z,38.35
2023-02-14T08:53:56.914Z,34.65
2023-02-14T08:56:24.993Z,40.47
2023-02-14T08:58:52.567Z,37.03
2023-02-14T09:01:19.463Z,36.00
2023-02-14T09:03:46.500Z,36.55
2023-02-14T09:06:16.994Z,34.83
2023-02-14T09:08:44.546Z,134.15
2023-02-14T09:11:14.144Z,64.50
2023-02-14T09:13:42.316Z,42.10
2023-02-14T09:16:10.537Z,43.55
2023-02-14T09:18:37.699Z,42.63
2023-02-14T09:21:09.350Z,47.30
2023-02-14T09:23:36.237Z,55.60
2023-02-14T09:26:08.335Z,55.95
2023-02-14T09:28:35.248Z,91.93
2023-02-14T09:31:12.870Z,102.43
2023-02-14T09:33:40.139Z,75.00
2023-02-14T09:36:19.057Z,53.97
2023-02-14T09:38:45.917Z,54.38
2023-02-14T09:41:31.313Z,45.42
2023-02-14T09:44:05.667Z,45.15
2023-02-14T09:46:36.946Z,48.83
2023-02-14T09:49:03.922Z,41.50
2023-02-14T09:51:31.711Z,49.20
2023-02-14T09:54:05.074Z,47.30
2023-02-14T09:56:54.109Z,49.83
2023-02-14T09:59:36.664Z,53.38
2023-02-14T10:02:19.541Z,50.80
2023-02-14T10:04:46.773Z,50.67
2023-02-14T10:07:32.541Z,47.17
2023-02-14T10:10:20.671Z,53.10
2023-02-14T10:12:53.056Z,47.92
2023-02-14T10:15:28.149Z,55.60
2023-02-14T10:17:55.109Z,43.92
2023-02-14T10:20:32.049Z,51.13
2023-02-14T10:23:10.990Z,53.95
2023-02-14T10:25:46.226Z,65.00
2023-02-14T10:28:16.782Z,48.15
2023-02-14T10:30:50.418Z,59.90
2023-02-14T10:33:18.423Z,51.08
2023-02-14T10:35:55.585Z,51.65
2023-02-14T10:38:31.841Z,59.10
2023-02-14T10:41:14.038Z,53.38
2023-02-14T10:43:46.244Z,52.45
2023-02-14T10:46:18.031Z,58.83
2023-02-14T10:48:45.032Z,55.15
2023-02-14T10:51:34.060Z,53.92
2023-02-14T10:54:01.204Z,58.97
2023-02-14T10:56:40.870Z,55.85
2023-02-14T10:59:25.945Z,61.55
2023-02-14T11:01:53.990Z,57.95
2023-02-14T11:04:22.722Z,55.03
2023-02-14T11:06:50.447Z,60.45
2023-02-14T11:09:23.089Z,58.25
2023-02-14T11:11:51.651Z,54.55
2023-02-14T11:14:44.770Z,52.40
2023-02-14T11:17:31.220Z,56.05
2023-02-14T11:19:58.198Z,55.15
2023-02-14T11:22:35.205Z,59.53
2023-02-14T11:25:18.641Z,58.97
2023-02-14T11:27:50.086Z,63.13
2023-02-14T11:30:22.533Z,56.13
2023-02-14T11:32:55.070Z,57.55
2023-02-14T11:35:28.614Z,58.03
2023-02-14T11:37:56.303Z,67.13
2023-02-14T11:40:26.378Z,60.28
2023-02-14T11:43:02.270Z,73.40
2023-02-14T11:45:39.083Z,69.30
2023-02-14T11:48:16.190Z,57.53
2023-02-14T11:50:53.533Z,65.97
2023-02-14T11:53:22.015Z,61.67
2023-02-14T11:55:53.835Z,58.42
2023-02-14T11:58:30.457Z,54.53
2023-02-14T12:00:57.633Z,51.97
2023-02-14T12:03:25.495Z,60.60
2023-02-14T12:05:57.207Z,51.50
2023-02-14T12:08:25.002Z,57.67
2023-02-14T12:11:01.647Z,58.78
2023-02-14T12:13:28.889Z,84.22
2023-02-14T12:15:57.404Z,62.65
2023-02-14T12:18:42.835Z,56.05
2023-02-14T12:21:28.663Z,49.58
2023-02-14T12:24:07.726Z,50.75
2023-02-14T12:26:46.580Z,63.65
2023-02-14T12:29:35.100Z,58.72
2023-02-14T12:32:06.108Z,58.88
2023-02-14T12:34:33.957Z,56.08
2023-02-14T12:37:06.768Z,53.13
2023-02-14T12:39:36.825Z,53.28
2023-02-14T12:42:22.829Z,55.03
2023-02-14T12:44:49.980Z,76.00
2023-02-14T12:47:19.793Z,66.30
2023-02-14T12:49:49.748Z,51.33
2023-02-14T12:52:35.326Z,49.53
2023-02-14T12:55:06.265Z,57.05
2023-02-14T12:57:42.420Z,53.13
2023-02-14T13:00:28.923Z,51.78
2023-02-14T13:03:03.481Z,50.42
2023-02-14T13:05:46.509Z,51.72
2023-02-14T13:08:42.889Z,50.40
2023-02-14T13:11:29.165Z,51.25
2023-02-14T13:14:04.469Z,50.13
2023-02-14T13:16:37.975Z,47.55
2023-02-14T13:19:14.226Z,49.10
2023-02-14T13:21:41.907Z,39.92
2023-02-14T13:24:18.373Z,44.65
2023-02-14T13:26:48.635Z,43.75
2023-02-14T13:29:17.617Z,37.28
2023-02-14T13:31:44.686Z,38.63
2023-02-14T13:34:14.604Z,38.63
2023-02-14T13:36:42.442Z,36.15
2023-02-14T13:39:14.194Z,37.03
2023-02-14T13:41:41.909Z,40.20
2023-02-14T13:44:08.695Z,38.63
2023-02-14T13:46:35.677Z,38.13
2023-02-14T13:49:21.219Z,38.47
2023-02-14T13:51:52.176Z,36.65
2023-02-14T13:54:36.400Z,40.30
2023-02-14T13:57:23.139Z,38.40
2023-02-14T14:00:11.024Z,37.72
2023-02-14T14:02:43.514Z,33.25
2023-02-14T14:05:29.194Z,37.13
2023-02-14T14:08:19.352Z,33.70
2023-02-14T14:10:46.229Z,32.28
2023-02-14T14:13:31.815Z,30.05
2023-02-14T14:16:17.480Z,57.97
2023-02-14T14:18:44.285Z,33.25
2023-02-14T14:21:23.132Z,33.05
2023-02-14T14:24:13.859Z,31.92
2023-02-14T14:26:58.357Z,31.17
2023-02-14T14:29:34.839Z,32.70
2023-02-14T14:32:14.765Z,28.75
2023-02-14T14:34:47.954Z,32.28
2023-02-14T14:37:19.585Z,29.35
2023-02-14T14:39:50.513Z,31.00
2023-02-14T14:42:17.597Z,30.80
2023-02-14T14:44:52.412Z,31.58
2023-02-14T14:47:21.677Z,30.63
2023-02-14T14:49:48.662Z,27.38
2023-02-14T14:52:25.942Z,28.73
2023-02-14T14:54:53.411Z,29.38
2023-02-14T14:57:21.425Z,27.27
2023-02-14T14:59:49.506Z,23.48
2023-02-14T15:02:26.375Z,26.48
2023-02-14T15:04:53.608Z,21.60
2023-02-14T15:07:27.672Z,20.48
2023-02-14T15:09:54.521Z,22.52
2023-02-14T15:12:41.404Z,24.30
2023-02-14T15:15:11.080Z,22.27
2023-02-14T15:17:38.741Z,21.30
2023-02-14T15:20:07.800Z,19.83
2023-02-14T15:22:44.429Z,20.67
2023-02-14T15:25:13.027Z,25.33
2023-02-14T15:27:41.236Z,20.90
2023-02-14T15:30:20.727Z,23.00
2023-02-14T15:32:49.478Z,22.40
2023-02-14T15:35:17.472Z,23.20
2023-02-14T15:37:47.387Z,24.23
2023-02-14T15:40:18.260Z,28.10
2023-02-14T15:42:45.331Z,23.10
2023-02-14T15:45:16.373Z,27.10
2023-02-14T15:47:44.680Z,22.80
2023-02-14T15:50:24.390Z,22.70
2023-02-14T15:52:53.299Z,22.25
2023-02-14T15:55:22.214Z,23.02
2023-02-14T15:57:54.776Z,19.63
2023-02-14T16:00:22.353Z,21.17
2023-02-14T16:02:57.364Z,21.10
2023-02-14T16:05:25.078Z,20.67
2023-02-14T16:08:03.765Z,21.88
2023-02-14T16:10:37.691Z,22.00
2023-02-14T16:13:04.627Z,20.98
2023-02-14T16:15:36.628Z,25.02
2023-02-14T16:18:08.277Z,22.77
2023-02-14T16:20:35.185Z,19.73
2023-02-14T16:23:20.576Z,21.88
2023-02-14T16:25:47.981Z,24.70
2023-02-14T16:28:15.251Z,22.58
2023-02-14T16:30:42.718Z,21.90
2023-02-14T16:33:21.222Z,21.00
2023-02-14T16:35:49.056Z,22.83
2023-02-14T16:38:17.764Z,20.75
2023-02-14T16:40:49.348Z,22.00
2023-02-14T16:43:16.948Z,22.65
2023-02-14T16:45:44.360Z,22.10
2023-02-14T16:48:11.370Z,22.63
2023-02-14T16:50:39.867Z,22.80
2023-02-14T16:53:08.213Z,21.40
2023-02-14T16:55:35.078Z,27.33
2023-02-14T16:58:02.989Z,43.80
2023-02-14T17:00:29.862Z,25.52
2023-02-14T17:03:04.565Z,24.50
2023-02-14T17:05:32.996Z,23.65
2023-02-14T17:08:01.604Z,25.48
2023-02-14T17:10:28.951Z,27.00
2023-02-14T17:12:56.814Z,22.02
2023-02-14T17:15:25.118Z,23.13
2023-02-14T17:17:54.772Z,22.27
2023-02-14T17:20:24.512Z,20.40
2023-02-14T17:22:51.984Z,23.77
2023-02-14T17:25:18.891Z,23.45
2023-02-14T17:27:46.356Z,23.33
2023-02-14T17:30:14.615Z,26.58
2023-02-14T17:32:42.091Z,23.33
2023-02-14T17:35:09.209Z,22.92
2023-02-14T17:37:36.604Z,23.13
2023-02-14T17:40:04.526Z,25.23
2023-02-14T17:42:34.698Z,25.25
2023-02-14T17:45:01.618Z,22.50
2023-02-14T17:47:32.529Z,23.40
2023-02-14T17:49:59.405Z,23.40
2023-02-14T17:52:28.450Z,29.63
2023-02-14T17:54:55.284Z,30.20
2023-02-14T17:57:22.131Z,34.58
2023-02-14T17:59:48.954Z,33.13
2023-02-14T18:02:15.798Z,27.98
2023-02-14T18:04:42.683Z,36.53
2023-02-14T18:07:09.491Z,26.38
2023-02-14T18:09:36.406Z,26.77
2023-02-14T18:12:04.119Z,28.23
2023-02-14T18:14:31.487Z,27.20
2023-02-14T18:16:58.267Z,26.77
2023-02-14T18:19:25.106Z,27.13
2023-02-14T18:21:52.040Z,29.35
2023-02-14T18:24:19.998Z,31.83
2023-02-14T18:26:47.012Z,29.88
2023-02-14T18:29:14.065Z,31.05
2023-02-14T18:31:42.353Z,34.92
2023-02-14T18:34:09.518Z,32.30
2023-02-14T18:36:37.875Z,30.90
2023-02-14T18:39:05.380Z,31.70
2023-02-14T18:41:32.229Z,28.52
2023-02-14T18:43:59.082Z,32.00
2023-02-14T18:46:27.406Z,30.88
2023-02-14T18:48:55.505Z,33.58
2023-02-14T18:51:23.807Z,30.50
2023-02-14T18:53:52.356Z,29.00
2023-02-14T18:56:21.241Z,30.02
2023-02-14T18:58:50.765Z,28.40
2023-02-14T19:01:19.138Z,29.60
2023-02-14T19:03:46.392Z,29.67
2023-02-14T19:06:13.399Z,26.40
2023-02-14T19:08:40.786Z,27.85
2023-02-14T19:11:12.126Z,28.27
2023-02-14T19:13:39.044Z,27.65
2023-02-14T19:16:09.662Z,30.33
2023-02-14T19:18:36.523Z,30.13
2023-02-14T19:21:13.570Z,30.10
2023-02-14T19:23:40.720Z,26.80
2023-02-14T19:26:15.290Z,29.95
2023-02-14T19:28:42.563Z,29.70
2023-02-14T19:31:10.373Z,26.48
2023-02-14T19:33:38.050Z,34.05
2023-02-14T19:36:07.418Z,38.58
2023-02-14T19:38:34.587Z,28.42
2023-02-14T19:41:01.681Z,31.88
2023-02-14T19:43:28.677Z,32.72
2023-02-14T19:45:55.541Z,36.13
2023-02-14T19:48:22.482Z,32.65
2023-02-14T19:50:49.761Z,38.25
2023-02-14T19:53:16.582Z,30.42
2023-02-14T19:55:43.409Z,35.30
2023-02-14T19:58:10.512Z,38.17
2023-02-14T20:00:38.120Z,35.10
2023-02-14T20:03:06.237Z,41.72
2023-02-14T20:05:33.203Z,37.40
2023-02-14T20:08:00.272Z,32.83
2023-02-14T20:10:27.222Z,33.63
2023-02-14T20:12:54.093Z,31.83
2023-02-14T20:15:20.888Z,34.22
2023-02-14T20:17:47.788Z,32.78
2023-02-14T20:20:16.123Z,29.35
2023-02-14T20:22:42.968Z,32.72
2023-02-14T20:25:09.904Z,32.92
2023-02-14T20:27:37.114Z,36.70
2023-02-14T20:30:04.739Z,34.72
2023-02-14T20:32:32.853Z,35.13
2023-02-14T20:35:00.064Z,35.38
2023-02-14T20:37:27.249Z,34.05
2023-02-14T20:39:56.652Z,30.65
2023-02-14T20:42:23.846Z,33.20
2023-02-14T20:44:50.828Z,32.38
2023-02-14T20:47:17.622Z,33.40
2023-02-14T20:49:44.876Z,31.40
2023-02-14T20:52:14.929Z,31.73
2023-02-14T20:54:41.948Z,31.27
2023-02-14T20:57:11.432Z,32.75
2023-02-14T20:59:41.431Z,30.73
2023-02-14T21:02:10.310Z,33.53
2023-02-14T21:04:39.421Z,29.70
2023-02-14T21:07:09.104Z,30.65
2023-02-14T21:09:38.026Z,34.38
2023-02-14T21:12:09.518Z,38.72
2023-02-14T21:14:39.930Z,37.03
2023-02-14T21:17:07.121Z,37.88
2023-02-14T21:19:36.448Z,39.15
2023-02-14T21:22:03.582Z,37.10
2023-02-14T21:24:33.617Z,37.95
2023-02-14T21:27:01.908Z,41.50
2023-02-14T21:29:32.478Z,40.53
2023-02-14T21:32:01.722Z,37.80
2023-02-14T21:34:29.496Z,38.20
2023-02-14T21:36:56.676Z,37.58
2023-02-14T21:39:27.868Z,41.88
2023-02-14T21:42:01.747Z,39.25
2023-02-14T21:44:49.754Z,41.67
2023-02-14T21:47:19.537Z,36.15
2023-02-14T21:50:07.737Z,36.00
2023-02-14T21:52:37.329Z,37.00
2023-02-14T21:55:10.037Z,37.25
2023-02-14T21:57:37.427Z,36.25
2023-02-14T22:00:08.365Z,38.97
2023-02-14T22:02:35.546Z,39.45
2023-02-14T22:05:02.552Z,33.45
2023-02-14T22:07:29.638Z,37.33
2023-02-14T22:10:01.328Z,37.92
2023-02-14T22:12:35.332Z,35.90
2023-02-14T22:15:02.505Z,37.53
2023-02-14T22:17:31.507Z,38.85
2023-02-14T22:19:59.243Z,41.38
2023-02-14T22:22:27.287Z,36.88
2023-02-14T22:24:57.200Z,39.25
2023-02-14T22:27:33.818Z,35.83
2023-02-14T22:30:09.083Z,38.65
2023-02-14T22:32:44.962Z,43.97
2023-02-14T22:35:12.177Z,41.17
2023-02-14T22:37:48.504Z,45.22
2023-02-14T22:40:19.883Z,38.67
2023-02-14T22:42:56.518Z,44.35
2023-02-14T22:45:29.458Z,39.70
2023-02-14T22:47:58.175Z,40.45
2023-02-14T22:50:25.213Z,40.60
2023-02-14T22:52:54.237Z,42.95
2023-02-14T22:55:25.522Z,48.10
2023-02-14T22:57:59.179Z,43.60
2023-02-14T23:00:27.113Z,53.00
2023-02-14T23:02:54.343Z,63.53
2023-02-14T23:05:22.711Z,72.65
2023-02-14T23:07:53.186Z,105.80
2023-02-14T23:10:22.805Z,98.43
2023-02-14T23:13:08.384Z,98.50
2023-02-14T23:15:56.230Z,74.30
2023-02-14T23:18:42.302Z,72.47
2023-02-14T23:21:34.937Z,75.47
2023-02-14T23:24:05.661Z,74.47
2023-02-14T23:26:32.620Z,78.07
2023-02-14T23:28:59.772Z,72.78
2023-02-14T23:31:26.672Z,75.43
2023-02-14T23:33:53.521Z,74.80
2023-02-14T23:36:20.292Z,66.35
2023-02-14T23:38:47.140Z,75.40
2023-02-14T23:41:32.876Z,67.32
2023-02-14T23:43:59.788Z,64.47
2023-02-14T23:46:27.051Z,62.75
2023-02-14T23:48:53.849Z,66.70
2023-02-14T23:51:20.651Z,60.15
2023-02-14T23:53:47.493Z,65.45
2023-02-14T23:56:14.336Z,62.72
2023-02-14T23:58:43.378Z,66.70
